createdAt,value
2018-05-11T00:00:29.403Z,255.00
2018-05-11T00:01:07.643Z,255.00
2018-05-11T00:01:43.094Z,176.62
2018-05-11T00:02:18.475Z,225.49
2018-05-11T00:02:54.221Z,222.88
2018-05-11T00:03:29.691Z,243.08
2018-05-11T00:04:05.379Z,247.10
2018-05-11T00:04:41.586Z,220.42
2018-05-11T00:05:17.047Z,225.64
2018-05-11T00:05:52.296Z,255.00
2018-05-11T00:06:27.813Z,231.86
2018-05-11T00:07:03.039Z,245.21
2018-05-11T00:07:38.825Z,228.10
2018-05-11T00:08:13.999Z,234.04
2018-05-11T00:08:49.454Z,203.32
2018-05-11T00:09:24.712Z,234.71
2018-05-11T00:09:59.685Z,252.22
2018-05-11T00:10:35.063Z,254.44
2018-05-11T00:11:10.331Z,181.82
2018-05-11T00:11:45.550Z,253.53
2018-05-11T00:12:20.679Z,144.38
2018-05-11T00:12:55.905Z,164.89
2018-05-11T00:13:31.380Z,220.84
2018-05-11T00:14:06.734Z,213.58
2018-05-11T00:14:42.153Z,236.04
2018-05-11T00:15:17.299Z,229.75
2018-05-11T00:15:53.063Z,211.26
2018-05-11T00:16:28.601Z,245.76
2018-05-11T00:17:03.883Z,196.63
2018-05-11T00:17:39.414Z,191.39
2018-05-11T00:18:14.839Z,30.00
2018-05-11T00:18:51.032Z,42.16
2018-05-11T00:19:26.597Z,231.70
2018-05-11T00:20:01.851Z,68.47
2018-05-11T00:20:37.590Z,196.98
2018-05-11T00:21:13.478Z,337.76
2018-05-11T00:21:48.995Z,261.55
2018-05-11T00:22:24.385Z,153.23
2018-05-11T00:22:59.899Z,220.90
2018-05-11T00:23:35.289Z,226.43
2018-05-11T00:24:10.650Z,255.00
2018-05-11T00:24:45.982Z,255.00
2018-05-11T00:25:21.438Z,255.00
2018-05-11T00:25:56.778Z,255.00
2018-05-11T00:26:32.001Z,255.00
2018-05-11T00:27:07.437Z,255.00
2018-05-11T00:27:45.155Z,255.00
2018-05-11T00:28:21.152Z,255.00
2018-05-11T00:28:56.241Z,247.91
2018-05-11T00:29:31.601Z,253.60
2018-05-11T00:30:06.976Z,211.32
2018-05-11T00:30:43.629Z,27.31
2018-05-11T00:31:18.796Z,211.45
2018-05-11T00:31:54.142Z,222.52
2018-05-11T00:32:29.612Z,265.81
2018-05-11T00:33:05.190Z,210.00
2018-05-11T00:33:40.281Z,210.00
2018-05-11T00:34:15.383Z,210.00
2018-05-11T00:34:51.060Z,210.00
2018-05-11T00:35:26.609Z,210.00
2018-05-11T00:36:01.981Z,210.00
2018-05-11T00:36:38.656Z,210.84
2018-05-11T00:37:14.218Z,241.54
2018-05-11T00:37:49.686Z,310.69
2018-05-11T00:38:25.083Z,194.21
2018-05-11T00:39:00.920Z,210.00
2018-05-11T00:39:36.261Z,210.00
2018-05-11T00:40:11.686Z,210.00
2018-05-11T00:40:48.803Z,210.00
2018-05-11T00:41:24.544Z,208.68
2018-05-11T00:42:00.008Z,57.59
2018-05-11T00:42:35.313Z,183.87
2018-05-11T00:43:10.700Z,192.28
2018-05-11T00:43:46.034Z,165.94
2018-05-11T00:44:21.517Z,162.07
2018-05-11T00:44:57.154Z,210.00
2018-05-11T00:45:32.436Z,223.43
2018-05-11T00:46:08.059Z,214.18
2018-05-11T00:46:43.395Z,34.05
2018-05-11T00:47:18.600Z,263.75
2018-05-11T00:47:54.188Z,41.03
2018-05-11T00:48:29.937Z,208.06
2018-05-11T00:49:05.330Z,221.36
2018-05-11T00:49:40.788Z,210.00
2018-05-11T00:50:16.053Z,210.00
2018-05-11T00:50:51.242Z,218.07
2018-05-11T00:51:26.425Z,244.55
2018-05-11T00:52:02.284Z,249.58
2018-05-11T00:52:37.837Z,210.00
2018-05-11T00:53:13.010Z,210.00
2018-05-11T00:53:48.388Z,215.43
2018-05-11T00:54:23.921Z,312.05
2018-05-11T00:54:59.245Z,232.84
2018-05-11T00:55:34.625Z,243.61
2018-05-11T00:56:09.753Z,255.00
2018-05-11T00:56:45.176Z,255.00
2018-05-11T00:57:20.461Z,255.00
2018-05-11T00:57:55.979Z,255.00
2018-05-11T00:58:31.680Z,239.17
2018-05-11T00:59:07.172Z,255.00
2018-05-11T00:59:43.002Z,237.78
2018-05-11T01:00:18.232Z,221.17
2018-05-11T01:00:56.250Z,255.00
2018-05-11T01:01:31.857Z,255.00
2018-05-11T01:02:07.822Z,252.86
2018-05-11T01:02:43.277Z,210.00
2018-05-11T01:03:18.917Z,40.84
2018-05-11T01:03:54.209Z,30.00
2018-05-11T01:04:29.591Z,30.00
2018-05-11T01:05:05.335Z,30.00
2018-05-11T01:05:40.975Z,258.93
2018-05-11T01:06:16.159Z,21.90
2018-05-11T01:06:51.716Z,43.78
2018-05-11T01:07:27.289Z,150.40
2018-05-11T01:08:02.763Z,114.19
2018-05-11T01:08:38.071Z,221.20
2018-05-11T01:09:15.555Z,29.58
2018-05-11T01:09:50.827Z,311.96
2018-05-11T01:10:26.066Z,230.87
2018-05-11T01:11:01.079Z,165.00
2018-05-11T01:11:36.408Z,43.69
2018-05-11T01:12:11.927Z,187.48
2018-05-11T01:12:49.220Z,210.00
2018-05-11T01:13:24.569Z,255.00
2018-05-11T01:13:59.702Z,255.00
2018-05-11T01:14:35.116Z,219.70
2018-05-11T01:15:10.476Z,210.00
2018-05-11T01:15:46.440Z,203.10
2018-05-11T01:16:22.270Z,75.00
2018-05-11T01:16:57.761Z,75.00
2018-05-11T01:17:33.134Z,75.00
2018-05-11T01:18:08.829Z,77.66
2018-05-11T01:18:44.462Z,255.00
2018-05-11T01:19:20.353Z,255.00
2018-05-11T01:19:55.639Z,255.00
2018-05-11T01:20:31.218Z,255.00
2018-05-11T01:21:06.805Z,248.86
2018-05-11T01:21:44.001Z,281.51
2018-05-11T01:22:19.521Z,51.25
2018-05-11T01:22:54.789Z,102.24
2018-05-11T01:23:30.218Z,120.00
2018-05-11T01:24:05.734Z,120.00
2018-05-11T01:24:42.193Z,194.16
2018-05-11T01:25:17.752Z,210.00
2018-05-11T01:25:53.018Z,248.17
2018-05-11T01:26:28.564Z,255.00
2018-05-11T01:27:03.928Z,255.00
2018-05-11T01:27:39.059Z,240.36
2018-05-11T01:28:15.130Z,215.42
2018-05-11T01:28:51.121Z,245.30
2018-05-11T01:29:26.355Z,216.93
2018-05-11T01:30:02.155Z,30.00
2018-05-11T01:30:38.066Z,26.46
2018-05-11T01:31:13.245Z,251.63
2018-05-11T01:31:51.078Z,255.00
2018-05-11T01:32:26.677Z,255.00
2018-05-11T01:33:02.201Z,256.91
2018-05-11T01:33:37.744Z,326.23
2018-05-11T01:34:13.214Z,258.10
2018-05-11T01:34:51.543Z,237.56
2018-05-11T01:35:27.060Z,240.25
2018-05-11T01:36:03.654Z,252.67
2018-05-11T01:36:39.237Z,210.00
2018-05-11T01:37:14.485Z,234.80
2018-05-11T01:37:50.711Z,227.16
2018-05-11T01:38:26.063Z,250.97
2018-05-11T01:39:01.509Z,255.00
2018-05-11T01:39:36.800Z,255.00
2018-05-11T01:40:12.072Z,255.00
2018-05-11T01:40:51.135Z,210.00
2018-05-11T01:41:27.119Z,305.96
2018-05-11T01:42:02.356Z,273.68
2018-05-11T01:42:37.707Z,243.80
2018-05-11T01:43:13.040Z,75.00
2018-05-11T01:43:48.523Z,75.00
2018-05-11T01:44:23.644Z,75.00
2018-05-11T01:44:59.068Z,69.81
2018-05-11T01:45:34.462Z,242.35
2018-05-11T01:46:09.910Z,227.95
2018-05-11T01:46:45.116Z,255.00
2018-05-11T01:47:20.476Z,239.36
2018-05-11T01:47:55.706Z,255.00
2018-05-11T01:48:31.157Z,255.00
2018-05-11T01:49:06.556Z,255.00
2018-05-11T01:49:41.781Z,255.00
2018-05-11T01:50:17.034Z,246.74
2018-05-11T01:50:52.053Z,219.70
2018-05-11T01:51:27.650Z,255.00
2018-05-11T01:52:02.944Z,255.00
2018-05-11T01:52:38.215Z,228.68
2018-05-11T01:53:13.673Z,221.17
2018-05-11T01:53:49.065Z,252.72
2018-05-11T01:54:24.587Z,195.64
2018-05-11T01:54:59.883Z,234.41
2018-05-11T01:55:35.310Z,260.75
2018-05-11T01:56:10.926Z,210.47
2018-05-11T01:56:46.391Z,257.70
2018-05-11T01:57:21.735Z,255.00
2018-05-11T01:57:57.179Z,253.66
2018-05-11T01:58:32.452Z,255.00
2018-05-11T01:59:07.818Z,209.60
2018-05-11T01:59:43.202Z,248.17
2018-05-11T02:00:18.856Z,255.00
2018-05-11T02:00:56.272Z,250.89
2018-05-11T02:01:31.918Z,224.46
2018-05-11T02:02:07.528Z,210.00
2018-05-11T02:02:42.844Z,233.27
2018-05-11T02:03:18.176Z,240.11
2018-05-11T02:03:53.553Z,231.73
2018-05-11T02:04:28.779Z,255.00
2018-05-11T02:05:03.953Z,222.48
2018-05-11T02:05:39.512Z,248.61
2018-05-11T02:06:14.859Z,239.36
2018-05-11T02:06:50.748Z,243.65
2018-05-11T02:07:26.271Z,254.68
2018-05-11T02:08:01.693Z,237.18
2018-05-11T02:08:37.532Z,254.33
2018-05-11T02:09:12.638Z,237.09
2018-05-11T02:09:47.923Z,221.07
2018-05-11T02:10:23.185Z,245.44
2018-05-11T02:10:59.018Z,65.95
2018-05-11T02:11:35.548Z,92.23
2018-05-11T02:12:10.880Z,239.75
2018-05-11T02:12:46.291Z,240.86
2018-05-11T02:13:21.705Z,242.35
2018-05-11T02:13:56.892Z,210.35
2018-05-11T02:14:32.312Z,255.00
2018-05-11T02:15:07.549Z,224.16
2018-05-11T02:15:43.826Z,246.43
2018-05-11T02:16:20.560Z,256.14
2018-05-11T02:16:55.953Z,250.97
2018-05-11T02:17:31.384Z,263.43
2018-05-11T02:18:06.999Z,243.58
2018-05-11T02:18:42.524Z,109.05
2018-05-11T02:19:17.728Z,132.34
2018-05-11T02:19:53.273Z,220.51
2018-05-11T02:20:28.706Z,52.28
2018-05-11T02:21:04.047Z,79.50
2018-05-11T02:21:39.363Z,248.86
2018-05-11T02:22:14.656Z,208.89
2018-05-11T02:22:50.044Z,210.00
2018-05-11T02:23:25.571Z,210.00
2018-05-11T02:24:01.355Z,28.81
2018-05-11T02:24:37.524Z,254.28
2018-05-11T02:25:12.904Z,255.00
2018-05-11T02:25:48.422Z,41.97
2018-05-11T02:26:23.782Z,69.76
2018-05-11T02:26:59.043Z,49.30
2018-05-11T02:27:34.480Z,25.36
2018-05-11T02:28:09.846Z,210.00
2018-05-11T02:28:45.204Z,211.46
2018-05-11T02:29:20.692Z,122.19
2018-05-11T02:29:56.174Z,210.00
2018-05-11T02:30:31.416Z,210.00
2018-05-11T02:31:07.185Z,210.00
2018-05-11T02:31:43.525Z,219.52
2018-05-11T02:32:18.765Z,238.74
2018-05-11T02:32:53.892Z,250.25
2018-05-11T02:33:29.583Z,237.84
2018-05-11T02:34:05.613Z,210.00
2018-05-11T02:34:41.393Z,236.32
2018-05-11T02:35:16.680Z,233.39
2018-05-11T02:35:52.088Z,255.00
2018-05-11T02:36:27.524Z,217.01
2018-05-11T02:37:03.084Z,210.00
2018-05-11T02:37:38.923Z,210.00
2018-05-11T02:38:14.746Z,131.74
2018-05-11T02:38:50.184Z,250.25
2018-05-11T02:39:25.313Z,230.99
2018-05-11T02:40:00.323Z,210.00
2018-05-11T02:40:35.612Z,210.00
2018-05-11T02:41:11.073Z,210.00
2018-05-11T02:41:46.486Z,210.00
2018-05-11T02:42:21.833Z,226.89
2018-05-11T02:42:57.280Z,297.98
2018-05-11T02:43:32.989Z,245.27
2018-05-11T02:44:08.619Z,217.56
2018-05-11T02:44:44.348Z,233.21
2018-05-11T02:45:19.819Z,224.93
2018-05-11T02:45:55.355Z,206.98
2018-05-11T02:46:30.573Z,237.84
2018-05-11T02:47:05.696Z,255.00
2018-05-11T02:47:40.971Z,255.00
2018-05-11T02:48:16.414Z,255.00
2018-05-11T02:48:51.939Z,255.00
2018-05-11T02:49:27.635Z,255.00
2018-05-11T02:50:03.074Z,255.00
2018-05-11T02:50:40.084Z,255.00
2018-05-11T02:51:15.639Z,255.00
2018-05-11T02:51:50.968Z,255.00
2018-05-11T02:52:26.438Z,213.41
2018-05-11T02:53:01.819Z,233.27
2018-05-11T02:53:36.881Z,255.00
2018-05-11T02:54:12.323Z,252.29
2018-05-11T02:54:47.461Z,228.73
2018-05-11T02:55:23.099Z,249.58
2018-05-11T02:55:58.330Z,225.64
2018-05-11T02:56:33.819Z,212.71
2018-05-11T02:57:09.175Z,237.85
2018-05-11T02:57:45.655Z,255.00
2018-05-11T02:58:21.294Z,255.00
2018-05-11T02:58:56.696Z,260.42
2018-05-11T02:59:32.336Z,253.68
2018-05-11T03:00:07.956Z,255.00
2018-05-11T03:00:44.323Z,255.00
2018-05-11T03:01:19.741Z,255.00
2018-05-11T03:01:55.212Z,255.00
2018-05-11T03:02:30.581Z,255.00
2018-05-11T03:03:06.834Z,255.00
2018-05-11T03:03:42.392Z,255.00
2018-05-11T03:04:17.710Z,255.00
2018-05-11T03:04:53.100Z,255.00
2018-05-11T03:05:28.453Z,255.00
2018-05-11T03:06:04.165Z,255.00
2018-05-11T03:06:39.967Z,255.00
2018-05-11T03:07:15.090Z,255.00
2018-05-11T03:07:50.758Z,255.00
2018-05-11T03:08:26.443Z,255.00
2018-05-11T03:09:01.802Z,255.00
2018-05-11T03:09:37.451Z,255.00
2018-05-11T03:10:12.717Z,255.00
2018-05-11T03:10:50.769Z,255.00
2018-05-11T03:11:26.225Z,255.00
2018-05-11T03:12:01.570Z,255.00
2018-05-11T03:12:38.593Z,255.00
2018-05-11T03:13:14.167Z,255.00
2018-05-11T03:13:49.393Z,255.00
2018-05-11T03:14:24.919Z,255.00
2018-05-11T03:15:00.264Z,255.00
2018-05-11T03:15:36.211Z,248.17
2018-05-11T03:16:11.533Z,255.00
2018-05-11T03:16:46.749Z,255.00
2018-05-11T03:17:22.332Z,255.00
2018-05-11T03:17:58.014Z,255.00
2018-05-11T03:18:33.628Z,255.00
2018-05-11T03:19:09.043Z,255.00
2018-05-11T03:19:44.414Z,254.31
2018-05-11T03:20:19.950Z,255.00
2018-05-11T03:20:55.321Z,243.42
2018-05-11T03:21:31.279Z,255.00
2018-05-11T03:22:08.406Z,255.00
2018-05-11T03:22:44.246Z,285.86
2018-05-11T03:23:19.810Z,254.40
2018-05-11T03:23:55.208Z,215.42
2018-05-11T03:24:30.532Z,210.00
2018-05-11T03:25:05.716Z,210.00
2018-05-11T03:25:42.385Z,210.00
2018-05-11T03:26:18.085Z,210.00
2018-05-11T03:26:53.269Z,210.00
2018-05-11T03:27:28.851Z,210.00
2018-05-11T03:28:04.178Z,210.00
2018-05-11T03:28:39.918Z,210.00
2018-05-11T03:29:15.549Z,210.00
2018-05-11T03:29:50.842Z,207.34
2018-05-11T03:30:26.453Z,19.06
2018-05-11T03:31:02.002Z,30.00
2018-05-11T03:31:37.757Z,30.00
2018-05-11T03:32:13.291Z,30.00
2018-05-11T03:32:48.888Z,30.00
2018-05-11T03:33:24.347Z,30.00
2018-05-11T03:33:59.726Z,30.00
2018-05-11T03:34:35.075Z,30.00
2018-05-11T03:35:10.432Z,30.00
2018-05-11T03:35:46.170Z,30.00
2018-05-11T03:36:21.571Z,30.00
2018-05-11T03:36:57.099Z,30.00
2018-05-11T03:37:32.476Z,30.00
2018-05-11T03:38:08.136Z,30.00
2018-05-11T03:38:43.957Z,30.00
2018-05-11T03:39:19.920Z,30.00
2018-05-11T03:39:55.043Z,30.00
2018-05-11T03:40:30.321Z,30.00
2018-05-11T03:41:05.670Z,30.00
2018-05-11T03:41:41.043Z,30.00
2018-05-11T03:42:16.194Z,30.00
2018-05-11T03:42:51.522Z,30.00
2018-05-11T03:43:26.832Z,30.00
2018-05-11T03:44:02.233Z,29.44
2018-05-11T03:44:37.631Z,177.78
2018-05-11T03:45:13.011Z,240.11
2018-05-11T03:45:50.122Z,210.00
2018-05-11T03:46:25.404Z,261.03
2018-05-11T03:47:00.788Z,235.83
2018-05-11T03:47:36.028Z,23.63
2018-05-11T03:48:11.738Z,249.72
2018-05-11T03:48:47.638Z,49.97
2018-05-11T03:49:23.214Z,37.38
2018-05-11T03:50:00.470Z,255.64
2018-05-11T03:50:36.201Z,255.00
2018-05-11T03:51:12.119Z,255.00
2018-05-11T03:51:47.586Z,255.00
2018-05-11T03:52:23.032Z,255.00
2018-05-11T03:52:58.472Z,255.00
2018-05-11T03:53:33.660Z,255.00
2018-05-11T03:54:09.063Z,255.00
2018-05-11T03:54:44.954Z,255.00
2018-05-11T03:55:20.376Z,255.00
2018-05-11T03:55:55.569Z,255.00
2018-05-11T03:56:31.026Z,255.00
2018-05-11T03:57:06.121Z,255.00
2018-05-11T03:57:41.645Z,255.00
2018-05-11T03:58:17.189Z,255.00
2018-05-11T03:58:52.619Z,255.00
2018-05-11T03:59:28.148Z,255.00
2018-05-11T04:00:03.425Z,255.00
2018-05-11T04:00:39.440Z,255.00
2018-05-11T04:01:15.211Z,255.00
2018-05-11T04:01:50.471Z,255.00
2018-05-11T04:02:25.945Z,255.00
2018-05-11T04:03:01.557Z,255.00
2018-05-11T04:03:37.182Z,34.62
2018-05-11T04:04:12.677Z,210.00
2018-05-11T04:04:48.553Z,179.14
2018-05-11T04:05:24.021Z,167.74
2018-05-11T04:05:59.453Z,165.00
2018-05-11T04:06:34.653Z,174.25
2018-05-11T04:07:09.909Z,265.77
2018-05-11T04:07:45.242Z,255.00
2018-05-11T04:08:20.758Z,255.00
2018-05-11T04:08:56.142Z,255.00
2018-05-11T04:09:31.520Z,255.00
2018-05-11T04:10:06.975Z,255.00
2018-05-11T04:10:43.580Z,255.00
2018-05-11T04:11:18.940Z,255.00
2018-05-11T04:11:54.394Z,255.00
2018-05-11T04:12:30.084Z,255.00
2018-05-11T04:13:05.584Z,255.00
2018-05-11T04:13:41.157Z,255.00
2018-05-11T04:14:17.643Z,255.00
2018-05-11T04:14:53.249Z,255.00
2018-05-11T04:15:28.840Z,255.00
2018-05-11T04:16:04.459Z,255.00
2018-05-11T04:16:39.793Z,255.00
2018-05-11T04:17:15.168Z,255.00
2018-05-11T04:17:50.503Z,255.00
2018-05-11T04:18:26.234Z,255.00
2018-05-11T04:19:01.492Z,255.00
2018-05-11T04:19:36.678Z,255.00
2018-05-11T04:20:11.967Z,255.00
2018-05-11T04:20:47.364Z,255.00
2018-05-11T04:21:22.916Z,255.00
2018-05-11T04:21:58.351Z,255.00
2018-05-11T04:22:33.862Z,255.00
2018-05-11T04:23:09.103Z,255.00
2018-05-11T04:23:44.290Z,255.00
2018-05-11T04:24:19.777Z,255.00
2018-05-11T04:24:55.162Z,255.00
2018-05-11T04:25:30.730Z,252.23
2018-05-11T04:26:05.878Z,278.06
2018-05-11T04:26:41.393Z,167.02
2018-05-11T04:27:17.744Z,199.46
2018-05-11T04:27:53.092Z,255.00
2018-05-11T04:28:28.560Z,210.00
2018-05-11T04:29:04.192Z,236.70
2018-05-11T04:29:40.579Z,300.00
2018-05-11T04:30:16.026Z,269.86
2018-05-11T04:30:51.574Z,226.29
2018-05-11T04:31:26.816Z,254.31
2018-05-11T04:32:02.056Z,222.40
2018-05-11T04:32:37.580Z,208.68
2018-05-11T04:33:13.226Z,223.51
2018-05-11T04:33:48.661Z,210.00
2018-05-11T04:34:24.085Z,210.00
2018-05-11T04:34:59.297Z,210.00
2018-05-11T04:35:35.160Z,210.00
2018-05-11T04:36:11.051Z,198.88
2018-05-11T04:36:46.606Z,187.17
2018-05-11T04:37:21.938Z,187.00
2018-05-11T04:37:57.440Z,187.00
2018-05-11T04:38:32.905Z,187.00
2018-05-11T04:39:08.000Z,187.17
2018-05-11T04:39:43.665Z,187.00
2018-05-11T04:40:19.007Z,187.00
2018-05-11T04:40:55.095Z,187.00
2018-05-11T04:41:30.405Z,232.10
2018-05-11T04:42:05.762Z,303.73
2018-05-11T04:42:41.023Z,30.00
2018-05-11T04:43:16.716Z,230.49
2018-05-11T04:43:52.254Z,226.76
2018-05-11T04:44:27.549Z,218.60
2018-05-11T04:45:05.101Z,120.00
2018-05-11T04:45:40.309Z,112.92
2018-05-11T04:46:15.685Z,275.43
2018-05-11T04:46:52.044Z,120.00
2018-05-11T04:47:27.480Z,237.90
2018-05-11T04:48:03.398Z,205.97
2018-05-11T04:48:38.616Z,211.85
2018-05-11T04:49:13.734Z,56.81
2018-05-11T04:49:49.201Z,186.92
2018-05-11T04:50:24.468Z,305.90
2018-05-11T04:50:59.867Z,210.00
2018-05-11T04:51:34.972Z,238.60
2018-05-11T04:52:10.452Z,210.72
2018-05-11T04:52:45.921Z,249.10
2018-05-11T04:53:21.559Z,215.42
2018-05-11T04:53:56.955Z,255.00
2018-05-11T04:54:32.410Z,255.00
2018-05-11T04:55:08.204Z,238.23
2018-05-11T04:55:43.945Z,195.47
2018-05-11T04:56:19.308Z,264.04
2018-05-11T04:56:55.128Z,255.00
2018-05-11T04:57:30.468Z,210.05
2018-05-11T04:58:05.872Z,40.57
2018-05-11T04:58:41.154Z,214.30
2018-05-11T04:59:16.679Z,240.12
2018-05-11T04:59:52.184Z,185.34
2018-05-11T05:00:27.689Z,116.06
2018-05-11T05:01:07.439Z,193.24
2018-05-11T05:01:42.742Z,243.63
2018-05-11T05:02:18.302Z,220.32
2018-05-11T05:02:56.038Z,233.00
2018-05-11T05:03:31.350Z,182.49
2018-05-11T05:04:06.487Z,164.95
2018-05-11T05:04:41.964Z,166.27
2018-05-11T05:05:17.766Z,210.00
2018-05-11T05:05:53.262Z,210.00
2018-05-11T05:06:28.661Z,210.00
2018-05-11T05:07:04.173Z,210.00
2018-05-11T05:07:42.647Z,210.00
2018-05-11T05:08:18.162Z,232.14
2018-05-11T05:08:53.599Z,208.60
2018-05-11T05:09:29.254Z,210.00
2018-05-11T05:10:04.426Z,210.00
2018-05-11T05:10:43.063Z,236.32
2018-05-11T05:11:18.319Z,248.86
2018-05-11T05:11:53.797Z,44.04
2018-05-11T05:12:29.212Z,75.00
2018-05-11T05:13:04.735Z,48.57
2018-05-11T05:13:40.311Z,138.52
2018-05-11T05:14:15.861Z,263.43
2018-05-11T05:14:51.362Z,210.71
2018-05-11T05:15:26.711Z,176.11
2018-05-11T05:16:04.172Z,148.85
2018-05-11T05:16:39.411Z,295.97
2018-05-11T05:17:16.552Z,300.00
2018-05-11T05:17:53.781Z,300.00
2018-05-11T05:18:29.393Z,230.87
2018-05-11T05:19:04.957Z,208.62
2018-05-11T05:19:41.816Z,224.34
2018-05-11T05:20:17.205Z,178.63
2018-05-11T05:22:53.841Z,75.00
2018-05-11T05:23:29.402Z,70.39
2018-05-11T05:24:05.113Z,257.79
2018-05-11T05:24:40.650Z,161.84
2018-05-11T05:25:18.805Z,217.59
2018-05-11T05:25:57.446Z,195.43
2018-05-11T05:26:33.170Z,232.75
2018-05-11T05:27:10.126Z,255.00
2018-05-11T05:27:45.437Z,179.90
2018-05-11T05:28:21.091Z,165.69
2018-05-11T05:28:58.584Z,137.06
2018-05-11T05:29:33.826Z,65.30
2018-05-11T05:30:11.358Z,89.28
2018-05-11T05:30:46.670Z,30.00
2018-05-11T05:31:22.284Z,30.00
2018-05-11T05:31:59.906Z,59.58
2018-05-11T05:32:36.296Z,94.36
2018-05-11T05:33:11.609Z,106.91
2018-05-11T05:33:46.827Z,102.76
2018-05-11T05:34:22.060Z,75.00
2018-05-11T05:34:57.349Z,75.00
2018-05-11T05:35:32.563Z,75.00
2018-05-11T05:36:07.740Z,248.23
2018-05-11T05:39:23.121Z,158.53
2018-05-11T05:39:58.407Z,142.78
2018-05-11T05:40:33.501Z,210.00
2018-05-11T05:41:08.769Z,216.83
2018-05-11T05:41:43.838Z,140.76
2018-05-11T05:42:19.155Z,237.84
2018-05-11T05:42:54.435Z,183.43
2018-05-11T05:43:29.802Z,189.86
2018-05-11T05:44:05.522Z,78.46
2018-05-11T05:44:42.191Z,84.84
2018-05-11T05:45:17.597Z,133.28
2018-05-11T05:45:53.208Z,210.03
2018-05-11T05:46:28.461Z,80.29
2018-05-11T05:47:03.894Z,126.45
2018-05-11T05:47:39.303Z,186.18
2018-05-11T05:48:14.541Z,250.25
2018-05-11T05:48:50.031Z,123.82
2018-05-11T05:49:25.313Z,201.51
2018-05-11T05:50:00.390Z,148.07
2018-05-11T05:50:35.534Z,176.04
2018-05-11T05:51:10.751Z,144.78
2018-05-11T05:51:46.144Z,197.23
2018-05-11T05:52:21.572Z,238.39
2018-05-11T05:52:57.217Z,106.60
2018-05-11T05:53:32.508Z,76.32
2018-05-11T05:54:08.123Z,49.57
2018-05-11T05:54:43.587Z,157.40
2018-05-11T05:55:18.751Z,184.11
2018-05-11T05:55:53.874Z,210.00
2018-05-11T05:56:29.193Z,205.68
2018-05-11T05:57:04.460Z,156.15
2018-05-11T05:57:39.911Z,209.38
2018-05-11T05:58:17.872Z,176.27
2018-05-11T05:58:53.243Z,225.26
2018-05-11T05:59:28.765Z,251.71
2018-05-11T06:00:04.013Z,77.71
2018-05-11T06:00:40.201Z,112.44
2018-05-11T06:01:16.484Z,118.68
2018-05-11T06:01:52.222Z,58.16
2018-05-11T06:02:28.038Z,64.17
2018-05-11T06:03:03.237Z,56.90
2018-05-11T06:03:38.858Z,89.02
2018-05-11T06:04:14.136Z,63.04
2018-05-11T06:04:49.612Z,85.32
2018-05-11T06:05:24.821Z,352.92
2018-05-11T06:05:59.971Z,19.81
2018-05-11T06:06:35.509Z,100.28
2018-05-11T06:07:11.387Z,207.90
2018-05-11T06:07:46.714Z,228.07
2018-05-11T06:08:22.181Z,86.74
2018-05-11T06:08:57.454Z,88.45
2018-05-11T06:09:32.909Z,113.64
2018-05-11T06:10:08.547Z,107.35
2018-05-11T06:10:44.786Z,129.84
2018-05-11T06:11:19.949Z,96.29
2018-05-11T06:11:55.275Z,96.05
2018-05-11T06:12:30.748Z,156.81
2018-05-11T06:13:06.213Z,221.95
2018-05-11T06:13:41.371Z,178.00
2018-05-11T06:14:16.958Z,82.00
2018-05-11T06:14:52.842Z,115.97
2018-05-11T06:15:28.359Z,80.53
2018-05-11T06:16:07.029Z,68.61
2018-05-11T06:16:42.384Z,60.96
2018-05-11T06:17:20.318Z,58.53
2018-05-11T06:17:57.728Z,82.92
2018-05-11T06:18:33.022Z,100.05
2018-05-11T06:19:08.658Z,111.73
2018-05-11T06:19:47.235Z,71.80
2018-05-11T06:20:22.604Z,80.17
2018-05-11T06:21:01.227Z,57.07
2018-05-11T06:21:38.381Z,37.19
2018-05-11T06:22:13.924Z,245.04
2018-05-11T06:22:49.382Z,75.01
2018-05-11T06:23:24.824Z,212.85
2018-05-11T06:24:00.198Z,75.53
2018-05-11T06:24:35.876Z,65.73
2018-05-11T06:25:15.343Z,57.84
2018-05-11T06:25:51.502Z,58.18
2018-05-11T06:26:26.942Z,64.54
2018-05-11T06:27:02.423Z,68.44
2018-05-11T06:27:37.969Z,59.82
2018-05-11T06:28:13.695Z,67.89
2018-05-11T06:28:49.107Z,63.64
2018-05-11T06:29:24.187Z,58.32
2018-05-11T06:29:59.850Z,57.10
2018-05-11T06:30:35.194Z,69.14
2018-05-11T06:31:10.543Z,81.87
2018-05-11T06:31:45.792Z,78.02
2018-05-11T06:32:21.166Z,76.66
2018-05-11T06:32:56.319Z,84.53
2018-05-11T06:33:31.681Z,96.93
2018-05-11T06:34:06.856Z,66.01
2018-05-11T06:34:43.064Z,56.44
2018-05-11T06:35:18.560Z,53.30
2018-05-11T06:35:53.867Z,48.63
2018-05-11T06:36:29.094Z,73.35
2018-05-11T06:37:04.647Z,48.88
2018-05-11T06:37:40.181Z,62.34
2018-05-11T06:38:15.628Z,76.75
2018-05-11T06:38:51.343Z,135.59
2018-05-11T06:39:26.635Z,64.89
2018-05-11T06:40:01.945Z,76.12
2018-05-11T06:40:37.537Z,64.79
2018-05-11T06:41:12.867Z,62.35
2018-05-11T06:41:48.452Z,63.61
2018-05-11T06:42:23.707Z,96.62
2018-05-11T06:42:59.276Z,109.21
2018-05-11T06:43:34.840Z,131.91
2018-05-11T06:44:10.327Z,183.35
2018-05-11T06:44:45.551Z,71.46
2018-05-11T06:45:21.062Z,242.26
2018-05-11T06:45:56.652Z,138.68
2018-05-11T06:46:31.986Z,100.30
2018-05-11T06:47:07.429Z,137.95
2018-05-11T06:47:43.422Z,49.45
2018-05-11T06:48:19.314Z,187.04
2018-05-11T06:48:55.209Z,70.84
2018-05-11T06:49:30.788Z,87.68
2018-05-11T06:50:06.207Z,79.65
2018-05-11T06:50:41.606Z,70.56
2018-05-11T06:51:16.971Z,57.78
2018-05-11T06:51:52.320Z,83.86
2018-05-11T06:52:27.944Z,75.81
2018-05-11T06:53:03.369Z,76.45
2018-05-11T06:53:38.502Z,58.62
2018-05-11T06:54:16.331Z,89.48
2018-05-11T06:54:51.400Z,63.79
2018-05-11T06:55:26.854Z,88.70
2018-05-11T06:56:02.340Z,75.00
2018-05-11T06:56:37.612Z,75.00
2018-05-11T06:57:12.887Z,88.56
2018-05-11T06:57:48.661Z,100.97
2018-05-11T06:58:24.091Z,41.72
2018-05-11T06:59:02.668Z,180.92
2018-05-11T06:59:38.331Z,86.73
2018-05-11T07:00:13.772Z,50.51
2018-05-11T07:00:49.499Z,129.46
2018-05-11T07:01:24.841Z,65.22
2018-05-11T07:02:02.588Z,67.76
2018-05-11T07:02:40.151Z,114.76
2018-05-11T07:03:17.164Z,212.05
2018-05-11T07:03:52.422Z,144.72
2018-05-11T07:04:27.585Z,52.27
2018-05-11T07:05:02.903Z,104.38
2018-05-11T07:05:38.437Z,85.30
2018-05-11T07:06:13.783Z,112.20
2018-05-11T07:06:49.272Z,98.56
2018-05-11T07:07:24.616Z,82.03
2018-05-11T07:07:59.973Z,221.07
2018-05-11T07:08:35.226Z,92.77
2018-05-11T07:09:10.335Z,58.80
2018-05-11T07:09:45.885Z,71.11
2018-05-11T07:10:21.313Z,84.94
2018-05-11T07:10:57.532Z,52.99
2018-05-11T07:11:33.168Z,53.41
2018-05-11T07:12:08.536Z,102.44
2018-05-11T07:12:43.903Z,72.25
2018-05-11T07:13:19.116Z,40.21
2018-05-11T07:13:54.610Z,66.50
2018-05-11T07:14:29.840Z,63.83
2018-05-11T07:15:05.463Z,75.00
2018-05-11T07:15:43.053Z,68.81
2018-05-11T07:16:18.511Z,71.42
2018-05-11T07:16:53.885Z,41.97
2018-05-11T07:17:29.233Z,255.00
2018-05-11T07:18:04.624Z,332.32
2018-05-11T07:18:40.136Z,148.41
2018-05-11T07:19:15.581Z,88.45
2018-05-11T07:19:50.875Z,178.19
2018-05-11T07:20:26.465Z,101.29
2018-05-11T07:21:01.775Z,97.46
2018-05-11T07:21:37.072Z,129.33
2018-05-11T07:22:12.525Z,72.37
2018-05-11T07:22:48.081Z,87.39
2018-05-11T07:23:23.537Z,76.74
2018-05-11T07:23:59.125Z,75.03
2018-05-11T07:24:34.666Z,58.85
2018-05-11T07:25:09.767Z,57.61
2018-05-11T07:25:45.395Z,69.33
2018-05-11T07:26:21.014Z,61.33
2018-05-11T07:26:57.387Z,62.54
2018-05-11T07:27:32.914Z,91.32
2018-05-11T07:28:08.397Z,74.26
2018-05-11T07:28:43.869Z,64.35
2018-05-11T07:29:19.369Z,71.27
2018-05-11T07:29:54.705Z,65.97
2018-05-11T07:30:30.333Z,68.63
2018-05-11T07:31:06.746Z,73.65
2018-05-11T07:31:42.055Z,44.52
2018-05-11T07:32:17.582Z,161.14
2018-05-11T07:32:52.844Z,179.33